sensor_id;sensor_type;location;lat;lon;timestamp;P1;durP1;ratioP1;P2;durP2;ratioP2
54823;SDS011;40724;53.196;5.980;2024-02-15T00:02:06;29.38;;;15.90;;
54823;SDS011;40724;53.196;5.980;2024-02-15T00:04:32;39.20;;;19.25;;
54823;SDS011;40724;53.196;5.980;2024-02-15T00:06:58;26.98;;;15.57;;
54823;SDS011;40724;53.196;5.980;2024-02-15T00:09:25;30.60;;;16.67;;
54823;SDS011;40724;53.196;5.980;2024-02-15T00:11:51;34.10;;;16.17;;
54823;SDS011;40724;53.196;5.980;2024-02-15T00:14:19;28.55;;;16.67;;
54823;SDS011;40724;53.196;5.980;2024-02-15T00:16:45;35.97;;;16.13;;
54823;SDS011;40724;53.196;5.980;2024-02-15T00:19:11;32.22;;;15.80;;
54823;SDS011;40724;53.196;5.980;2024-02-15T00:21:36;29.45;;;15.77;;
54823;SDS011;40724;53.196;5.980;2024-02-15T00:24:02;32.03;;;15.73;;
54823;SDS011;40724;53.196;5.980;2024-02-15T00:26:28;35.95;;;15.23;;
54823;SDS011;40724;53.196;5.980;2024-02-15T00:28:54;28.35;;;15.27;;
54823;SDS011;40724;53.196;5.980;2024-02-15T00:31:19;28.75;;;14.50;;
54823;SDS011;40724;53.196;5.980;2024-02-15T00:33:45;25.90;;;13.45;;
54823;SDS011;40724;53.196;5.980;2024-02-15T00:36:11;21.92;;;12.65;;
54823;SDS011;40724;53.196;5.980;2024-02-15T00:38:37;29.50;;;13.25;;
54823;SDS011;40724;53.196;5.980;2024-02-15T00:41:03;25.23;;;12.32;;
54823;SDS011;40724;53.196;5.980;2024-02-15T00:43:31;23.50;;;11.70;;
54823;SDS011;40724;53.196;5.980;2024-02-15T00:46:00;26.77;;;11.93;;
54823;SDS011;40724;53.196;5.980;2024-02-15T00:48:26;27.05;;;11.52;;
54823;SDS011;40724;53.196;5.980;2024-02-15T00:51:03;21.52;;;11.40;;
54823;SDS011;40724;53.196;5.980;2024-02-15T00:53:29;23.90;;;11.35;;
54823;SDS011;40724;53.196;5.980;2024-02-15T00:55:55;28.20;;;12.52;;
54823;SDS011;40724;53.196;5.980;2024-02-15T00:58:21;24.85;;;12.27;;
54823;SDS011;40724;53.196;5.980;2024-02-15T01:00:47;19.65;;;9.98;;
54823;SDS011;40724;53.196;5.980;2024-02-15T01:03:12;22.45;;;10.65;;
54823;SDS011;40724;53.196;5.980;2024-02-15T01:05:39;26.42;;;11.88;;
54823;SDS011;40724;53.196;5.980;2024-02-15T01:08:04;22.15;;;10.35;;
54823;SDS011;40724;53.196;5.980;2024-02-15T01:10:30;18.70;;;9.48;;
54823;SDS011;40724;53.196;5.980;2024-02-15T01:12:56;19.17;;;10.50;;
54823;SDS011;40724;53.196;5.980;2024-02-15T01:15:22;19.58;;;9.27;;
54823;SDS011;40724;53.196;5.980;2024-02-15T01:17:48;21.10;;;9.88;;
54823;SDS011;40724;53.196;5.980;2024-02-15T01:20:14;19.55;;;9.68;;
54823;SDS011;40724;53.196;5.980;2024-02-15T01:22:40;21.70;;;10.85;;
54823;SDS011;40724;53.196;5.980;2024-02-15T01:25:06;25.33;;;10.85;;
54823;SDS011;40724;53.196;5.980;2024-02-15T01:27:32;20.17;;;10.43;;
54823;SDS011;40724;53.196;5.980;2024-02-15T01:29:59;25.13;;;8.77;;
54823;SDS011;40724;53.196;5.980;2024-02-15T01:32:24;15.90;;;9.20;;
54823;SDS011;40724;53.196;5.980;2024-02-15T01:34:51;13.80;;;8.45;;
54823;SDS011;40724;53.196;5.980;2024-02-15T01:37:19;17.83;;;8.30;;
54823;SDS011;40724;53.196;5.980;2024-02-15T01:39:45;18.92;;;9.73;;
54823;SDS011;40724;53.196;5.980;2024-02-15T01:42:11;18.23;;;8.85;;
54823;SDS011;40724;53.196;5.980;2024-02-15T01:44:39;14.00;;;8.20;;
54823;SDS011;40724;53.196;5.980;2024-02-15T01:47:06;16.10;;;8.35;;
54823;SDS011;40724;53.196;5.980;2024-02-15T01:49:33;17.42;;;9.20;;
54823;SDS011;40724;53.196;5.980;2024-02-15T01:51:59;21.20;;;8.98;;
54823;SDS011;40724;53.196;5.980;2024-02-15T01:54:27;18.67;;;9.27;;
54823;SDS011;40724;53.196;5.980;2024-02-15T01:56:53;14.85;;;7.55;;
54823;SDS011;40724;53.196;5.980;2024-02-15T01:59:19;17.52;;;9.23;;
54823;SDS011;40724;53.196;5.980;2024-02-15T02:01:48;17.98;;;8.48;;
54823;SDS011;40724;53.196;5.980;2024-02-15T02:04:15;13.77;;;7.60;;
54823;SDS011;40724;53.196;5.980;2024-02-15T02:06:40;17.45;;;8.77;;
54823;SDS011;40724;53.196;5.980;2024-02-15T02:09:12;19.88;;;7.93;;
54823;SDS011;40724;53.196;5.980;2024-02-15T02:11:42;19.60;;;8.32;;
54823;SDS011;40724;53.196;5.980;2024-02-15T02:14:11;18.00;;;7.90;;
54823;SDS011;40724;53.196;5.980;2024-02-15T02:16:37;14.60;;;7.47;;
54823;SDS011;40724;53.196;5.980;2024-02-15T02:19:04;16.27;;;8.25;;
54823;SDS011;40724;53.196;5.980;2024-02-15T02:21:34;15.52;;;8.95;;
54823;SDS011;40724;53.196;5.980;2024-02-15T02:24:02;20.73;;;9.00;;
54823;SDS011;40724;53.196;5.980;2024-02-15T02:26:33;16.98;;;8.00;;
54823;SDS011;40724;53.196;5.980;2024-02-15T02:29:02;14.50;;;7.65;;
54823;SDS011;40724;53.196;5.980;2024-02-15T02:31:33;13.02;;;7.22;;
54823;SDS011;40724;53.196;5.980;2024-02-15T02:33:59;17.33;;;8.23;;
54823;SDS011;40724;53.196;5.980;2024-02-15T02:36:26;22.23;;;9.25;;
54823;SDS011;40724;53.196;5.980;2024-02-15T02:38:52;23.58;;;7.75;;
54823;SDS011;40724;53.196;5.980;2024-02-15T02:41:18;12.52;;;7.78;;
54823;SDS011;40724;53.196;5.980;2024-02-15T02:43:48;16.63;;;7.47;;
54823;SDS011;40724;53.196;5.980;2024-02-15T02:46:14;23.98;;;7.93;;
54823;SDS011;40724;53.196;5.980;2024-02-15T02:48:40;18.85;;;9.55;;
54823;SDS011;40724;53.196;5.980;2024-02-15T02:51:06;15.10;;;7.93;;
54823;SDS011;40724;53.196;5.980;2024-02-15T02:53:32;13.57;;;8.45;;
54823;SDS011;40724;53.196;5.980;2024-02-15T02:55:58;18.83;;;9.02;;
54823;SDS011;40724;53.196;5.980;2024-02-15T02:58:24;19.77;;;9.75;;
54823;SDS011;40724;53.196;5.980;2024-02-15T03:00:50;22.08;;;10.25;;
54823;SDS011;40724;53.196;5.980;2024-02-15T03:03:16;23.23;;;10.85;;
54823;SDS011;40724;53.196;5.980;2024-02-15T03:05:44;22.42;;;10.23;;
54823;SDS011;40724;53.196;5.980;2024-02-15T03:08:12;20.60;;;11.38;;
54823;SDS011;40724;53.196;5.980;2024-02-15T03:10:38;24.08;;;11.40;;
54823;SDS011;40724;53.196;5.980;2024-02-15T03:13:06;19.95;;;9.95;;
54823;SDS011;40724;53.196;5.980;2024-02-15T03:15:34;18.13;;;9.80;;
54823;SDS011;40724;53.196;5.980;2024-02-15T03:18:00;18.02;;;10.55;;
54823;SDS011;40724;53.196;5.980;2024-02-15T03:20:32;15.67;;;9.53;;
54823;SDS011;40724;53.196;5.980;2024-02-15T03:23:01;21.48;;;10.70;;
54823;SDS011;40724;53.196;5.980;2024-02-15T03:25:28;21.13;;;9.60;;
54823;SDS011;40724;53.196;5.980;2024-02-15T03:27:54;22.08;;;9.90;;
54823;SDS011;40724;53.196;5.980;2024-02-15T03:30:22;16.80;;;9.02;;
54823;SDS011;40724;53.196;5.980;2024-02-15T03:32:52;19.63;;;10.93;;
54823;SDS011;40724;53.196;5.980;2024-02-15T03:35:18;19.67;;;8.45;;
54823;SDS011;40724;53.196;5.980;2024-02-15T03:37:48;15.80;;;9.10;;
54823;SDS011;40724;53.196;5.980;2024-02-15T03:40:17;16.65;;;9.40;;
54823;SDS011;40724;53.196;5.980;2024-02-15T03:42:44;16.40;;;7.60;;
54823;SDS011;40724;53.196;5.980;2024-02-15T03:45:11;13.13;;;8.00;;
54823;SDS011;40724;53.196;5.980;2024-02-15T03:47:37;17.85;;;8.35;;
54823;SDS011;40724;53.196;5.980;2024-02-15T03:50:03;19.25;;;8.00;;
54823;SDS011;40724;53.196;5.980;2024-02-15T03:52:36;16.27;;;8.35;;
54823;SDS011;40724;53.196;5.980;2024-02-15T03:55:02;20.05;;;10.15;;
54823;SDS011;40724;53.196;5.980;2024-02-15T03:57:29;13.55;;;7.72;;
54823;SDS011;40724;53.196;5.980;2024-02-15T03:59:55;15.57;;;8.38;;
54823;SDS011;40724;53.196;5.980;2024-02-15T04:02:24;14.68;;;7.90;;
54823;SDS011;40724;53.196;5.980;2024-02-15T04:04:54;17.95;;;7.45;;
54823;SDS011;40724;53.196;5.980;2024-02-15T04:07:20;16.92;;;7.93;;
54823;SDS011;40724;53.196;5.980;2024-02-15T04:09:47;16.00;;;9.20;;
54823;SDS011;40724;53.196;5.980;2024-02-15T04:12:14;17.13;;;8.60;;
54823;SDS011;40724;53.196;5.980;2024-02-15T04:14:40;14.98;;;7.85;;
54823;SDS011;40724;53.196;5.980;2024-02-15T04:17:06;18.77;;;8.52;;
54823;SDS011;40724;53.196;5.980;2024-02-15T04:19:33;16.58;;;8.75;;
54823;SDS011;40724;53.196;5.980;2024-02-15T04:21:59;19.50;;;8.85;;
54823;SDS011;40724;53.196;5.980;2024-02-15T04:24:28;17.65;;;7.88;;
54823;SDS011;40724;53.196;5.980;2024-02-15T04:26:54;17.58;;;8.23;;
54823;SDS011;40724;53.196;5.980;2024-02-15T04:29:20;16.40;;;8.05;;
54823;SDS011;40724;53.196;5.980;2024-02-15T04:31:46;17.00;;;9.02;;
54823;SDS011;40724;53.196;5.980;2024-02-15T04:34:16;16.13;;;10.05;;
54823;SDS011;40724;53.196;5.980;2024-02-15T04:36:43;18.08;;;10.50;;
54823;SDS011;40724;53.196;5.980;2024-02-15T04:39:15;13.80;;;8.65;;
54823;SDS011;40724;53.196;5.980;2024-02-15T04:41:49;16.75;;;9.73;;
54823;SDS011;40724;53.196;5.980;2024-02-15T04:44:16;18.17;;;9.20;;
54823;SDS011;40724;53.196;5.980;2024-02-15T04:46:45;20.58;;;9.85;;
54823;SDS011;40724;53.196;5.980;2024-02-15T04:49:12;19.85;;;10.27;;
54823;SDS011;40724;53.196;5.980;2024-02-15T04:51:40;21.55;;;10.15;;
54823;SDS011;40724;53.196;5.980;2024-02-15T04:54:07;15.80;;;8.95;;
54823;SDS011;40724;53.196;5.980;2024-02-15T04:56:33;20.15;;;9.80;;
54823;SDS011;40724;53.196;5.980;2024-02-15T04:59:04;15.23;;;9.57;;
54823;SDS011;40724;53.196;5.980;2024-02-15T05:01:29;14.00;;;9.55;;
54823;SDS011;40724;53.196;5.980;2024-02-15T05:03:58;15.55;;;8.15;;
54823;SDS011;40724;53.196;5.980;2024-02-15T05:06:24;19.80;;;7.68;;
54823;SDS011;40724;53.196;5.980;2024-02-15T05:08:51;20.10;;;9.07;;
54823;SDS011;40724;53.196;5.980;2024-02-15T05:11:17;15.23;;;8.55;;
54823;SDS011;40724;53.196;5.980;2024-02-15T05:13:47;17.27;;;8.30;;
54823;SDS011;40724;53.196;5.980;2024-02-15T05:16:17;14.20;;;9.25;;
54823;SDS011;40724;53.196;5.980;2024-02-15T05:18:43;15.82;;;9.55;;
54823;SDS011;40724;53.196;5.980;2024-02-15T05:21:10;20.90;;;10.32;;
54823;SDS011;40724;53.196;5.980;2024-02-15T05:23:37;13.50;;;8.15;;
54823;SDS011;40724;53.196;5.980;2024-02-15T05:26:05;13.93;;;8.73;;
54823;SDS011;40724;53.196;5.980;2024-02-15T05:28:31;15.05;;;9.10;;
54823;SDS011;40724;53.196;5.980;2024-02-15T05:31:14;16.27;;;7.80;;
54823;SDS011;40724;53.196;5.980;2024-02-15T05:33:45;15.50;;;9.05;;
54823;SDS011;40724;53.196;5.980;2024-02-15T05:36:13;15.23;;;8.88;;
54823;SDS011;40724;53.196;5.980;2024-02-15T05:38:39;14.40;;;9.18;;
54823;SDS011;40724;53.196;5.980;2024-02-15T05:41:06;18.35;;;8.50;;
54823;SDS011;40724;53.196;5.980;2024-02-15T05:43:34;15.48;;;8.63;;
54823;SDS011;40724;53.196;5.980;2024-02-15T05:46:03;14.32;;;8.40;;
54823;SDS011;40724;53.196;5.980;2024-02-15T05:48:29;13.00;;;8.23;;
54823;SDS011;40724;53.196;5.980;2024-02-15T05:50:55;17.10;;;8.88;;
54823;SDS011;40724;53.196;5.980;2024-02-15T05:53:23;17.38;;;7.90;;
54823;SDS011;40724;53.196;5.980;2024-02-15T05:55:50;10.40;;;7.53;;
54823;SDS011;40724;53.196;5.980;2024-02-15T05:58:16;15.68;;;9.20;;
54823;SDS011;40724;53.196;5.980;2024-02-15T06:00:42;17.95;;;9.18;;
54823;SDS011;40724;53.196;5.980;2024-02-15T06:03:12;13.20;;;8.57;;
54823;SDS011;40724;53.196;5.980;2024-02-15T06:05:38;12.32;;;8.88;;
54823;SDS011;40724;53.196;5.980;2024-02-15T06:08:05;16.23;;;9.02;;
54823;SDS011;40724;53.196;5.980;2024-02-15T06:10:31;16.27;;;9.02;;
54823;SDS011;40724;53.196;5.980;2024-02-15T06:12:57;14.35;;;8.90;;
54823;SDS011;40724;53.196;5.980;2024-02-15T06:15:26;17.10;;;9.18;;
54823;SDS011;40724;53.196;5.980;2024-02-15T06:17:52;17.30;;;9.07;;
54823;SDS011;40724;53.196;5.980;2024-02-15T06:20:18;20.15;;;10.02;;
54823;SDS011;40724;53.196;5.980;2024-02-15T06:22:45;13.32;;;9.20;;
54823;SDS011;40724;53.196;5.980;2024-02-15T06:25:11;14.88;;;8.55;;
54823;SDS011;40724;53.196;5.980;2024-02-15T06:27:38;14.82;;;10.32;;
54823;SDS011;40724;53.196;5.980;2024-02-15T06:30:10;11.70;;;7.68;;
54823;SDS011;40724;53.196;5.980;2024-02-15T06:32:56;16.42;;;9.55;;
54823;SDS011;40724;53.196;5.980;2024-02-15T06:35:41;13.30;;;9.18;;
54823;SDS011;40724;53.196;5.980;2024-02-15T06:38:26;14.35;;;8.68;;
54823;SDS011;40724;53.196;5.980;2024-02-15T06:41:10;18.70;;;10.32;;
54823;SDS011;40724;53.196;5.980;2024-02-15T06:43:37;17.58;;;10.75;;
54823;SDS011;40724;53.196;5.980;2024-02-15T06:46:05;17.25;;;9.68;;
54823;SDS011;40724;53.196;5.980;2024-02-15T06:48:32;15.85;;;10.57;;
54823;SDS011;40724;53.196;5.980;2024-02-15T06:50:58;13.80;;;9.90;;
54823;SDS011;40724;53.196;5.980;2024-02-15T06:53:23;16.42;;;11.68;;
54823;SDS011;40724;53.196;5.980;2024-02-15T06:55:49;20.48;;;12.02;;
54823;SDS011;40724;53.196;5.980;2024-02-15T06:58:16;17.20;;;11.60;;
54823;SDS011;40724;53.196;5.980;2024-02-15T07:00:42;14.90;;;10.70;;
54823;SDS011;40724;53.196;5.980;2024-02-15T07:03:09;17.10;;;11.07;;
54823;SDS011;40724;53.196;5.980;2024-02-15T07:05:36;16.88;;;11.55;;
54823;SDS011;40724;53.196;5.980;2024-02-15T07:08:07;19.88;;;12.93;;
54823;SDS011;40724;53.196;5.980;2024-02-15T07:10:37;18.63;;;11.98;;
54823;SDS011;40724;53.196;5.980;2024-02-15T07:13:04;23.58;;;13.25;;
54823;SDS011;40724;53.196;5.980;2024-02-15T07:15:31;19.27;;;12.95;;
54823;SDS011;40724;53.196;5.980;2024-02-15T07:17:58;19.55;;;12.65;;
54823;SDS011;40724;53.196;5.980;2024-02-15T07:20:24;23.70;;;13.90;;
54823;SDS011;40724;53.196;5.980;2024-02-15T07:22:51;15.25;;;10.90;;
54823;SDS011;40724;53.196;5.980;2024-02-15T07:25:17;16.45;;;11.32;;
54823;SDS011;40724;53.196;5.980;2024-02-15T07:27:43;19.55;;;12.90;;
54823;SDS011;40724;53.196;5.980;2024-02-15T07:30:09;17.63;;;12.07;;
54823;SDS011;40724;53.196;5.980;2024-02-15T07:32:35;16.52;;;10.93;;
54823;SDS011;40724;53.196;5.980;2024-02-15T07:35:02;20.05;;;14.90;;
54823;SDS011;40724;53.196;5.980;2024-02-15T07:37:28;18.98;;;12.95;;
54823;SDS011;40724;53.196;5.980;2024-02-15T07:39:54;21.30;;;12.98;;
54823;SDS011;40724;53.196;5.980;2024-02-15T07:42:22;16.95;;;11.25;;
54823;SDS011;40724;53.196;5.980;2024-02-15T07:44:50;19.45;;;11.85;;
54823;SDS011;40724;53.196;5.980;2024-02-15T07:47:18;18.25;;;12.13;;
54823;SDS011;40724;53.196;5.980;2024-02-15T07:49:46;18.13;;;12.65;;
54823;SDS011;40724;53.196;5.980;2024-02-15T07:52:12;16.95;;;12.02;;
54823;SDS011;40724;53.196;5.980;2024-02-15T07:54:38;22.02;;;13.77;;
54823;SDS011;40724;53.196;5.980;2024-02-15T07:57:04;22.52;;;15.35;;
54823;SDS011;40724;53.196;5.980;2024-02-15T07:59:30;20.05;;;13.20;;
54823;SDS011;40724;53.196;5.980;2024-02-15T08:01:56;18.65;;;12.60;;
54823;SDS011;40724;53.196;5.980;2024-02-15T08:04:23;18.70;;;13.35;;
54823;SDS011;40724;53.196;5.980;2024-02-15T08:06:50;19.45;;;13.55;;
54823;SDS011;40724;53.196;5.980;2024-02-15T08:09:19;20.02;;;12.68;;
54823;SDS011;40724;53.196;5.980;2024-02-15T08:11:47;17.70;;;12.45;;
54823;SDS011;40724;53.196;5.980;2024-02-15T08:14:13;17.83;;;12.10;;
54823;SDS011;40724;53.196;5.980;2024-02-15T08:16:39;17.75;;;13.50;;
54823;SDS011;40724;53.196;5.980;2024-02-15T08:19:06;20.63;;;12.05;;
54823;SDS011;40724;53.196;5.980;2024-02-15T08:21:32;20.83;;;12.77;;
54823;SDS011;40724;53.196;5.980;2024-02-15T08:24:01;20.60;;;14.07;;
54823;SDS011;40724;53.196;5.980;2024-02-15T08:26:35;23.48;;;16.33;;
54823;SDS011;40724;53.196;5.980;2024-02-15T08:29:03;17.92;;;12.77;;
54823;SDS011;40724;53.196;5.980;2024-02-15T08:31:29;18.50;;;13.00;;
54823;SDS011;40724;53.196;5.980;2024-02-15T08:34:01;24.30;;;13.80;;
54823;SDS011;40724;53.196;5.980;2024-02-15T08:36:30;24.00;;;14.23;;
54823;SDS011;40724;53.196;5.980;2024-02-15T08:38:56;16.58;;;12.75;;
54823;SDS011;40724;53.196;5.980;2024-02-15T08:41:22;17.27;;;12.45;;
54823;SDS011;40724;53.196;5.980;2024-02-15T08:43:52;17.98;;;12.00;;
54823;SDS011;40724;53.196;5.980;2024-02-15T08:46:18;20.80;;;15.02;;
54823;SDS011;40724;53.196;5.980;2024-02-15T08:48:45;15.93;;;12.35;;
54823;SDS011;40724;53.196;5.980;2024-02-15T08:51:12;18.25;;;12.32;;
54823;SDS011;40724;53.196;5.980;2024-02-15T08:53:38;19.42;;;14.73;;
54823;SDS011;40724;53.196;5.980;2024-02-15T08:56:04;17.05;;;13.82;;
54823;SDS011;40724;53.196;5.980;2024-02-15T08:58:30;17.70;;;11.95;;
54823;SDS011;40724;53.196;5.980;2024-02-15T09:00:56;20.90;;;14.02;;
54823;SDS011;40724;53.196;5.980;2024-02-15T09:03:23;15.68;;;11.20;;
54823;SDS011;40724;53.196;5.980;2024-02-15T09:05:49;17.02;;;11.65;;
54823;SDS011;40724;53.196;5.980;2024-02-15T09:08:15;18.35;;;12.93;;
54823;SDS011;40724;53.196;5.980;2024-02-15T09:10:46;17.65;;;12.00;;
54823;SDS011;40724;53.196;5.980;2024-02-15T09:13:12;14.70;;;11.07;;
54823;SDS011;40724;53.196;5.980;2024-02-15T09:15:39;18.48;;;12.57;;
54823;SDS011;40724;53.196;5.980;2024-02-15T09:18:06;15.68;;;11.65;;
54823;SDS011;40724;53.196;5.980;2024-02-15T09:20:35;16.63;;;11.60;;
54823;SDS011;40724;53.196;5.980;2024-02-15T09:23:02;17.35;;;11.40;;
54823;SDS011;40724;53.196;5.980;2024-02-15T09:25:34;14.25;;;10.75;;
54823;SDS011;40724;53.196;5.980;2024-02-15T09:28:01;17.30;;;11.65;;
54823;SDS011;40724;53.196;5.980;2024-02-15T09:30:28;13.88;;;10.48;;
54823;SDS011;40724;53.196;5.980;2024-02-15T09:32:56;15.48;;;10.13;;
54823;SDS011;40724;53.196;5.980;2024-02-15T09:35:22;12.70;;;10.02;;
54823;SDS011;40724;53.196;5.980;2024-02-15T09:37:48;13.55;;;10.02;;
54823;SDS011;40724;53.196;5.980;2024-02-15T09:40:15;12.77;;;9.98;;
54823;SDS011;40724;53.196;5.980;2024-02-15T09:42:42;12.68;;;8.85;;
54823;SDS011;40724;53.196;5.980;2024-02-15T09:45:12;12.77;;;9.05;;
54823;SDS011;40724;53.196;5.980;2024-02-15T09:47:40;12.10;;;8.90;;
54823;SDS011;40724;53.196;5.980;2024-02-15T09:50:13;14.70;;;9.35;;
54823;SDS011;40724;53.196;5.980;2024-02-15T09:52:51;13.40;;;9.98;;
54823;SDS011;40724;53.196;5.980;2024-02-15T09:55:18;14.27;;;10.90;;
54823;SDS011;40724;53.196;5.980;2024-02-15T09:57:45;13.63;;;9.95;;
54823;SDS011;40724;53.196;5.980;2024-02-15T10:00:14;12.35;;;9.98;;
54823;SDS011;40724;53.196;5.980;2024-02-15T10:02:42;10.52;;;9.05;;
54823;SDS011;40724;53.196;5.980;2024-02-15T10:05:11;10.48;;;8.50;;
54823;SDS011;40724;53.196;5.980;2024-02-15T10:07:41;15.48;;;9.95;;
54823;SDS011;40724;53.196;5.980;2024-02-15T10:12:51;12.10;;;8.73;;
54823;SDS011;40724;53.196;5.980;2024-02-15T10:15:35;10.05;;;8.23;;
54823;SDS011;40724;53.196;5.980;2024-02-15T10:18:08;10.65;;;8.95;;
54823;SDS011;40724;53.196;5.980;2024-02-15T10:20:36;11.80;;;7.90;;
54823;SDS011;40724;53.196;5.980;2024-02-15T10:23:10;10.90;;;8.20;;
54823;SDS011;40724;53.196;5.980;2024-02-15T10:28:02;11.02;;;7.82;;
54823;SDS011;40724;53.196;5.980;2024-02-15T10:30:33;9.35;;;7.55;;
54823;SDS011;40724;53.196;5.980;2024-02-15T10:32:59;10.43;;;7.20;;
54823;SDS011;40724;53.196;5.980;2024-02-15T10:35:25;10.07;;;8.13;;
54823;SDS011;40724;53.196;5.980;2024-02-15T10:37:51;9.68;;;7.03;;
54823;SDS011;40724;53.196;5.980;2024-02-15T10:40:20;8.90;;;6.65;;
54823;SDS011;40724;53.196;5.980;2024-02-15T10:42:47;8.98;;;6.40;;
54823;SDS011;40724;53.196;5.980;2024-02-15T10:45:14;9.57;;;6.78;;
54823;SDS011;40724;53.196;5.980;2024-02-15T10:47:46;9.30;;;6.93;;
54823;SDS011;40724;53.196;5.980;2024-02-15T10:52:44;10.82;;;6.95;;
54823;SDS011;40724;53.196;5.980;2024-02-15T10:55:14;7.47;;;5.97;;
54823;SDS011;40724;53.196;5.980;2024-02-15T10:57:44;7.43;;;5.65;;
54823;SDS011;40724;53.196;5.980;2024-02-15T11:00:13;6.55;;;5.35;;
54823;SDS011;40724;53.196;5.980;2024-02-15T11:03:02;7.47;;;6.00;;
54823;SDS011;40724;53.196;5.980;2024-02-15T11:05:39;7.28;;;4.82;;
54823;SDS011;40724;53.196;5.980;2024-02-15T11:08:08;6.65;;;4.55;;
54823;SDS011;40724;53.196;5.980;2024-02-15T11:10:35;6.60;;;4.95;;
54823;SDS011;40724;53.196;5.980;2024-02-15T11:13:01;5.10;;;4.30;;
54823;SDS011;40724;53.196;5.980;2024-02-15T11:15:44;5.80;;;4.10;;
54823;SDS011;40724;53.196;5.980;2024-02-15T11:18:12;4.53;;;3.40;;
54823;SDS011;40724;53.196;5.980;2024-02-15T11:23:07;4.38;;;3.03;;
54823;SDS011;40724;53.196;5.980;2024-02-15T11:25:38;4.35;;;3.30;;
54823;SDS011;40724;53.196;5.980;2024-02-15T11:30:52;4.25;;;3.28;;
54823;SDS011;40724;53.196;5.980;2024-02-15T11:33:28;5.70;;;3.80;;
54823;SDS011;40724;53.196;5.980;2024-02-15T11:36:03;5.03;;;3.67;;
54823;SDS011;40724;53.196;5.980;2024-02-15T11:38:33;3.65;;;2.97;;
54823;SDS011;40724;53.196;5.980;2024-02-15T11:46:17;5.55;;;3.70;;
54823;SDS011;40724;53.196;5.980;2024-02-15T11:48:46;4.60;;;3.45;;
54823;SDS011;40724;53.196;5.980;2024-02-15T11:54:04;5.85;;;4.10;;
54823;SDS011;40724;53.196;5.980;2024-02-15T11:59:39;7.13;;;5.28;;
54823;SDS011;40724;53.196;5.980;2024-02-15T12:02:18;7.50;;;4.80;;
54823;SDS011;40724;53.196;5.980;2024-02-15T12:05:04;10.88;;;6.18;;
54823;SDS011;40724;53.196;5.980;2024-02-15T12:07:49;9.43;;;6.82;;
54823;SDS011;40724;53.196;5.980;2024-02-15T12:10:34;12.65;;;8.27;;
54823;SDS011;40724;53.196;5.980;2024-02-15T12:13:19;11.27;;;8.00;;
54823;SDS011;40724;53.196;5.980;2024-02-15T12:16:03;14.63;;;7.93;;
54823;SDS011;40724;53.196;5.980;2024-02-15T12:18:48;17.23;;;9.38;;
54823;SDS011;40724;53.196;5.980;2024-02-15T12:21:19;13.05;;;7.45;;
54823;SDS011;40724;53.196;5.980;2024-02-15T12:23:48;15.52;;;8.80;;
54823;SDS011;40724;53.196;5.980;2024-02-15T12:26:20;13.50;;;9.40;;
54823;SDS011;40724;53.196;5.980;2024-02-15T12:28:54;19.23;;;12.00;;
54823;SDS011;40724;53.196;5.980;2024-02-15T12:31:22;16.80;;;9.25;;
54823;SDS011;40724;53.196;5.980;2024-02-15T12:34:03;17.60;;;10.15;;
54823;SDS011;40724;53.196;5.980;2024-02-15T12:36:33;19.50;;;11.75;;
54823;SDS011;40724;53.196;5.980;2024-02-15T12:39:05;18.90;;;12.25;;
54823;SDS011;40724;53.196;5.980;2024-02-15T12:41:46;15.13;;;9.73;;
54823;SDS011;40724;53.196;5.980;2024-02-15T12:44:15;16.40;;;10.95;;
54823;SDS011;40724;53.196;5.980;2024-02-15T12:46:42;17.88;;;12.10;;
54823;SDS011;40724;53.196;5.980;2024-02-15T12:49:31;20.08;;;9.88;;
54823;SDS011;40724;53.196;5.980;2024-02-15T12:54:42;20.15;;;13.43;;
54823;SDS011;40724;53.196;5.980;2024-02-15T12:57:09;17.58;;;11.20;;
54823;SDS011;40724;53.196;5.980;2024-02-15T12:59:36;19.65;;;13.10;;
54823;SDS011;40724;53.196;5.980;2024-02-15T13:02:02;16.80;;;11.32;;
54823;SDS011;40724;53.196;5.980;2024-02-15T13:04:29;17.20;;;12.00;;
54823;SDS011;40724;53.196;5.980;2024-02-15T13:06:56;19.35;;;11.73;;
54823;SDS011;40724;53.196;5.980;2024-02-15T13:09:22;20.73;;;12.30;;
54823;SDS011;40724;53.196;5.980;2024-02-15T13:11:48;17.63;;;12.50;;
54823;SDS011;40724;53.196;5.980;2024-02-15T13:14:15;21.77;;;12.32;;
54823;SDS011;40724;53.196;5.980;2024-02-15T13:16:42;22.60;;;13.23;;
54823;SDS011;40724;53.196;5.980;2024-02-15T13:19:09;19.70;;;12.18;;
54823;SDS011;40724;53.196;5.980;2024-02-15T13:21:35;17.70;;;11.63;;
54823;SDS011;40724;53.196;5.980;2024-02-15T13:24:02;17.50;;;12.60;;
54823;SDS011;40724;53.196;5.980;2024-02-15T13:26:32;17.75;;;11.18;;
54823;SDS011;40724;53.196;5.980;2024-02-15T13:28:59;15.77;;;11.00;;
54823;SDS011;40724;53.196;5.980;2024-02-15T13:31:25;18.10;;;11.93;;
54823;SDS011;40724;53.196;5.980;2024-02-15T13:33:52;16.83;;;11.77;;
54823;SDS011;40724;53.196;5.980;2024-02-15T13:36:18;18.90;;;12.35;;
54823;SDS011;40724;53.196;5.980;2024-02-15T13:38:45;18.38;;;13.02;;
54823;SDS011;40724;53.196;5.980;2024-02-15T13:41:12;17.83;;;11.93;;
54823;SDS011;40724;53.196;5.980;2024-02-15T13:43:37;16.58;;;11.88;;
54823;SDS011;40724;53.196;5.980;2024-02-15T13:46:06;19.85;;;12.52;;
54823;SDS011;40724;53.196;5.980;2024-02-15T13:48:32;17.58;;;12.02;;
54823;SDS011;40724;53.196;5.980;2024-02-15T13:50:57;19.88;;;12.15;;
54823;SDS011;40724;53.196;5.980;2024-02-15T13:53:23;17.20;;;12.13;;
54823;SDS011;40724;53.196;5.980;2024-02-15T13:55:50;20.23;;;12.38;;
54823;SDS011;40724;53.196;5.980;2024-02-15T13:58:17;19.02;;;11.35;;
54823;SDS011;40724;53.196;5.980;2024-02-15T14:00:43;17.60;;;12.18;;
54823;SDS011;40724;53.196;5.980;2024-02-15T14:03:10;16.65;;;10.98;;
54823;SDS011;40724;53.196;5.980;2024-02-15T14:05:36;21.42;;;13.05;;
54823;SDS011;40724;53.196;5.980;2024-02-15T14:08:05;17.40;;;11.80;;
54823;SDS011;40724;53.196;5.980;2024-02-15T14:10:32;16.17;;;11.93;;
54823;SDS011;40724;53.196;5.980;2024-02-15T14:13:00;16.02;;;11.23;;
54823;SDS011;40724;53.196;5.980;2024-02-15T14:15:36;16.85;;;10.52;;
54823;SDS011;40724;53.196;5.980;2024-02-15T14:18:04;16.38;;;11.45;;
54823;SDS011;40724;53.196;5.980;2024-02-15T14:20:30;16.73;;;11.00;;
54823;SDS011;40724;53.196;5.980;2024-02-15T14:22:58;17.98;;;11.30;;
54823;SDS011;40724;53.196;5.980;2024-02-15T14:25:30;16.67;;;10.80;;
54823;SDS011;40724;53.196;5.980;2024-02-15T14:27:56;17.98;;;10.88;;
54823;SDS011;40724;53.196;5.980;2024-02-15T14:30:23;17.35;;;10.88;;
54823;SDS011;40724;53.196;5.980;2024-02-15T14:33:08;20.90;;;11.65;;
54823;SDS011;40724;53.196;5.980;2024-02-15T14:35:39;16.85;;;10.45;;
54823;SDS011;40724;53.196;5.980;2024-02-15T14:38:06;12.95;;;9.80;;
54823;SDS011;40724;53.196;5.980;2024-02-15T14:40:34;15.38;;;10.00;;
54823;SDS011;40724;53.196;5.980;2024-02-15T14:43:00;15.52;;;9.40;;
54823;SDS011;40724;53.196;5.980;2024-02-15T14:45:27;18.50;;;10.23;;
54823;SDS011;40724;53.196;5.980;2024-02-15T14:47:53;14.00;;;9.57;;
54823;SDS011;40724;53.196;5.980;2024-02-15T14:50:20;12.80;;;10.18;;
54823;SDS011;40724;53.196;5.980;2024-02-15T14:52:46;18.48;;;10.13;;
54823;SDS011;40724;53.196;5.980;2024-02-15T14:55:18;15.67;;;9.40;;
54823;SDS011;40724;53.196;5.980;2024-02-15T14:57:45;17.73;;;11.02;;
54823;SDS011;40724;53.196;5.980;2024-02-15T15:00:11;15.27;;;10.45;;
54823;SDS011;40724;53.196;5.980;2024-02-15T15:02:42;13.15;;;9.32;;